Time;durP1;ratioP1;P1;durP2;ratioP2;P2;SDS_P1;SDS_P2;PMS_P1;PMS_P2;Temp;Humidity;BMP_temperature;BMP_pressure;BME280_temperature;BME280_humidity;BME280_pressure;Samples;Min_cycle;Max_cycle;Signal;HPM_P1;HPM_P2
2023/12/13 00:01:25;;;;;;;21.75;16.38;;;6.90;99.90;;;;;;5073656;28;20471;-62
2023/12/13 00:03:52;;;;;;;23.08;16.20;;;6.90;99.90;;;;;;5073702;28;20044;-63
2023/12/13 00:06:17;;;;;;;24.38;17.08;;;6.90;99.90;;;;;;5074268;28;20037;-63
2023/12/13 00:08:43;;;;;;;24.58;17.23;;;6.90;99.90;;;;;;5073942;28;20028;-63
2023/12/13 00:11:09;;;;;;;23.33;16.02;;;6.90;99.90;;;;;;5074153;28;20029;-63
2023/12/13 00:13:34;;;;;;;24.60;17.00;;;6.90;99.90;;;;;;5073915;28;20158;-63
2023/12/13 00:16:01;;;;;;;26.85;17.60;;;6.90;99.90;;;;;;5073370;28;20481;-63
2023/12/13 00:18:27;;;;;;;25.38;17.48;;;6.90;99.90;;;;;;5074209;28;20423;-63
2023/12/13 00:20:53;;;;;;;25.50;17.70;;;6.90;99.90;;;;;;5073480;28;20078;-62
2023/12/13 00:23:18;;;;;;;28.30;19.15;;;6.90;99.90;;;;;;5073838;28;20032;-62
2023/12/13 00:25:44;;;;;;;26.50;17.85;;;6.90;99.90;;;;;;5073135;28;20070;-63
2023/12/13 00:28:10;;;;;;;25.95;18.55;;;6.90;99.90;;;;;;5073977;28;20124;-63
2023/12/13 00:30:35;;;;;;;24.52;18.33;;;6.90;99.90;;;;;;5054069;28;20029;-64
2023/12/13 00:33:01;;;;;;;24.15;17.45;;;6.90;99.90;;;;;;5052674;28;20033;-63
2023/12/13 00:35:27;;;;;;;28.73;18.55;;;6.90;99.90;;;;;;5053614;28;20087;-62
2023/12/13 00:37:54;;;;;;;30.73;18.80;;;6.90;99.90;;;;;;5053272;28;20029;-62
2023/12/13 00:40:22;;;;;;;27.75;18.60;;;6.90;99.90;;;;;;5053527;28;20036;-63
2023/12/13 00:42:48;;;;;;;25.27;17.33;;;6.80;99.90;;;;;;5053038;28;20040;-63
2023/12/13 00:45:14;;;;;;;25.98;17.17;;;6.80;99.90;;;;;;5053079;28;20029;-62
2023/12/13 00:47:40;;;;;;;25.15;17.80;;;6.80;99.90;;;;;;5052671;28;20491;-62
2023/12/13 00:50:07;;;;;;;25.45;17.95;;;6.80;99.90;;;;;;5052997;28;20108;-63
2023/12/13 00:52:33;;;;;;;27.48;17.88;;;6.80;99.90;;;;;;5052115;28;20033;-62
2023/12/13 00:55:04;;;;;;;24.25;17.15;;;6.80;99.90;;;;;;5052926;28;20020;-62
2023/12/13 00:57:30;;;;;;;24.13;17.35;;;6.70;99.90;;;;;;5053247;28;20025;-62
2023/12/13 00:59:55;;;;;;;22.98;16.42;;;6.70;99.90;;;;;;5053080;28;20060;-62
2023/12/13 01:02:21;;;;;;;23.98;16.77;;;6.80;99.90;;;;;;5052912;28;20029;-62
2023/12/13 01:04:47;;;;;;;25.85;17.13;;;6.70;99.90;;;;;;5052677;28;20154;-63
2023/12/13 01:07:12;;;;;;;26.17;16.83;;;6.70;99.90;;;;;;5053114;28;20386;-63
2023/12/13 01:09:41;;;;;;;23.08;16.15;;;6.70;99.90;;;;;;5052976;28;20048;-62
2023/12/13 01:12:07;;;;;;;24.10;16.23;;;6.70;99.90;;;;;;5052715;28;20040;-63
2023/12/13 01:14:33;;;;;;;24.05;15.90;;;6.70;99.90;;;;;;5053295;28;20107;-63
2023/12/13 01:16:59;;;;;;;22.45;16.80;;;6.70;99.90;;;;;;5052539;28;20024;-62
2023/12/13 01:19:25;;;;;;;23.30;16.75;;;6.70;99.90;;;;;;5052948;28;20033;-63
2023/12/13 01:21:51;;;;;;;24.10;16.40;;;6.70;99.90;;;;;;5052485;28;20336;-63
2023/12/13 01:24:16;;;;;;;23.45;16.15;;;6.70;99.90;;;;;;5051489;28;20029;-63
2023/12/13 01:26:42;;;;;;;22.80;16.52;;;6.70;99.90;;;;;;5052650;28;20025;-63
2023/12/13 01:29:08;;;;;;;23.13;16.15;;;6.60;99.90;;;;;;5052109;28;20078;-64
2023/12/13 01:31:35;;;;;;;23.10;16.75;;;6.60;99.90;;;;;;5053035;28;20449;-62
2023/12/13 01:34:02;;;;;;;25.05;17.60;;;6.60;99.90;;;;;;5052336;28;20036;-63
2023/12/13 01:36:27;;;;;;;28.95;18.15;;;6.60;99.90;;;;;;5052621;28;20378;-63
2023/12/13 01:38:53;;;;;;;23.85;17.00;;;6.60;99.90;;;;;;5052033;28;20025;-64
2023/12/13 01:41:19;;;;;;;24.40;16.80;;;6.60;99.90;;;;;;5052553;28;20029;-63
2023/12/13 01:43:45;;;;;;;25.15;17.08;;;6.60;99.90;;;;;;5052498;28;20044;-62
2023/12/13 01:46:12;;;;;;;27.05;17.50;;;6.60;99.90;;;;;;5052088;28;20028;-62
2023/12/13 01:48:39;;;;;;;24.73;16.60;;;6.60;99.90;;;;;;5052966;28;20029;-62
2023/12/13 01:51:05;;;;;;;23.38;16.05;;;6.50;99.90;;;;;;5052209;28;20021;-62
2023/12/13 01:53:33;;;;;;;23.23;16.60;;;6.50;99.90;;;;;;5052770;28;20367;-64
2023/12/13 01:55:59;;;;;;;27.88;17.20;;;6.50;99.90;;;;;;5052375;28;20036;-64
2023/12/13 01:58:26;;;;;;;26.67;17.55;;;6.50;99.90;;;;;;5052287;28;20075;-64
2023/12/13 02:00:52;;;;;;;24.05;16.67;;;6.50;99.90;;;;;;5051639;28;20029;-64
2023/12/13 02:03:20;;;;;;;23.15;16.80;;;6.50;99.90;;;;;;5052084;28;20083;-62
2023/12/13 02:05:46;;;;;;;21.50;16.67;;;6.50;99.90;;;;;;5053188;28;20028;-63
2023/12/13 02:08:12;;;;;;;23.85;16.98;;;6.50;99.90;;;;;;5052040;28;20025;-64
2023/12/13 02:10:38;;;;;;;23.95;17.58;;;6.50;99.90;;;;;;5052526;28;20021;-62
2023/12/13 02:13:04;;;;;;;25.45;16.83;;;6.50;99.90;;;;;;5051777;28;20028;-64
2023/12/13 02:15:35;;;;;;;24.73;16.40;;;6.50;99.90;;;;;;5052420;28;20112;-64
2023/12/13 02:18:00;;;;;;;25.27;17.15;;;6.40;99.90;;;;;;5051964;28;20549;-64
2023/12/13 02:20:26;;;;;;;23.17;17.08;;;6.40;99.90;;;;;;5052468;28;20045;-61
2023/12/13 02:22:52;;;;;;;24.88;17.40;;;6.40;99.90;;;;;;5051408;28;20033;-63
2023/12/13 02:25:29;;;;;;;25.02;17.75;;;6.40;99.90;;;;;;5051019;28;20091;-63
2023/12/13 02:27:55;;;;;;;25.88;16.55;;;6.40;99.90;;;;;;5051832;28;20021;-63
2023/12/13 02:30:22;;;;;;;24.80;16.60;;;6.40;99.90;;;;;;5051587;28;20124;-63
2023/12/13 02:32:48;;;;;;;24.08;16.90;;;6.40;99.90;;;;;;5051910;28;20107;-63
2023/12/13 02:35:14;;;;;;;24.35;16.55;;;6.40;99.90;;;;;;5051819;28;20517;-63
2023/12/13 02:37:45;;;;;;;27.48;17.60;;;6.50;99.90;;;;;;5051957;28;20501;-62
2023/12/13 02:40:13;;;;;;;;;;;6.50;99.90;;;;;;5051317;28;20025;-63
2023/12/13 02:42:38;;;;;;;24.73;18.25;;;6.50;99.90;;;;;;5051846;28;20308;-62
2023/12/13 02:45:06;;;;;;;26.73;17.80;;;6.50;99.90;;;;;;5051596;28;20041;-64
2023/12/13 02:47:31;;;;;;;27.15;18.08;;;6.50;99.90;;;;;;5051643;28;20025;-63
2023/12/13 02:49:57;;;;;;;26.35;17.42;;;6.50;99.90;;;;;;5051183;28;20119;-62
2023/12/13 02:52:23;;;;;;;24.42;17.85;;;6.50;99.90;;;;;;5051166;28;20040;-62
2023/12/13 02:54:49;;;;;;;25.48;17.83;;;6.50;99.90;;;;;;5051510;28;20025;-63
2023/12/13 02:57:14;;;;;;;24.45;18.02;;;6.50;99.90;;;;;;5051025;28;20087;-63
2023/12/13 02:59:40;;;;;;;32.55;19.77;;;6.50;99.90;;;;;;5051479;28;20045;-63
2023/12/13 03:02:06;;;;;;;25.23;18.80;;;6.50;99.90;;;;;;5050929;28;20444;-62
2023/12/13 03:04:31;;;;;;;28.73;19.60;;;6.50;99.90;;;;;;5051432;28;20064;-63
2023/12/13 03:06:57;;;;;;;26.88;18.75;;;6.40;99.90;;;;;;5051078;28;20380;-62
2023/12/13 03:09:22;;;;;;;26.08;18.85;;;6.50;99.90;;;;;;5051013;28;20037;-64
2023/12/13 03:11:48;;;;;;;28.10;19.38;;;6.40;99.90;;;;;;5054266;28;20072;-62
2023/12/13 03:14:13;;;;;;;30.92;19.77;;;6.40;99.90;;;;;;5054777;28;20078;-63
2023/12/13 03:16:39;;;;;;;26.15;19.95;;;6.40;99.90;;;;;;5055208;28;20021;-62
2023/12/13 03:19:05;;;;;;;25.83;19.35;;;6.40;99.90;;;;;;5054832;28;20079;-63
2023/12/13 03:21:30;;;;;;;28.35;20.35;;;6.40;99.90;;;;;;5055006;28;20119;-62
2023/12/13 03:23:56;;;;;;;27.15;20.38;;;6.40;99.90;;;;;;5054533;28;20029;-63
2023/12/13 03:26:21;;;;;;;28.42;19.27;;;6.40;99.90;;;;;;5054951;28;20351;-62
2023/12/13 03:28:47;;;;;;;28.77;21.88;;;6.40;99.90;;;;;;5054993;28;20103;-62
2023/12/13 03:31:12;;;;;;;25.27;19.48;;;6.40;99.90;;;;;;5054269;28;20445;-62
2023/12/13 03:33:38;;;;;;;28.92;20.73;;;6.40;99.90;;;;;;5054669;28;20033;-62
2023/12/13 03:36:04;;;;;;;28.23;20.35;;;6.40;99.90;;;;;;5054317;28;20064;-63
2023/12/13 03:38:29;;;;;;;29.10;20.38;;;6.40;99.90;;;;;;5054711;28;20048;-63
2023/12/13 03:40:55;;;;;;;28.33;20.95;;;6.40;99.90;;;;;;5054538;28;20075;-66
2023/12/13 03:43:20;;;;;;;27.27;20.05;;;6.40;99.90;;;;;;5054466;28;20536;-63
2023/12/13 03:45:46;;;;;;;31.25;20.73;;;6.40;99.90;;;;;;5054785;28;20074;-62
2023/12/13 03:48:12;;;;;;;30.25;21.98;;;6.40;99.90;;;;;;5054214;28;20087;-63
2023/12/13 03:50:38;;;;;;;30.35;21.33;;;6.40;99.90;;;;;;5054422;28;20099;-63
2023/12/13 03:53:04;;;;;;;31.13;22.02;;;6.40;99.90;;;;;;5054115;28;20187;-63
2023/12/13 03:55:29;;;;;;;30.70;22.33;;;6.50;99.90;;;;;;5054555;28;20024;-62
2023/12/13 03:57:55;;;;;;;31.00;21.35;;;6.40;99.90;;;;;;5054419;28;20028;-62
2023/12/13 04:00:20;;;;;;;27.45;20.80;;;6.40;99.90;;;;;;5052309;28;20057;-62
2023/12/13 04:02:46;;;;;;;29.15;21.05;;;6.50;99.90;;;;;;5054359;28;20418;-62
2023/12/13 04:05:12;;;;;;;29.10;21.02;;;6.40;99.90;;;;;;5053819;28;20025;-63
2023/12/13 04:07:37;;;;;;;27.63;20.20;;;6.40;99.90;;;;;;5053984;28;20474;-63
2023/12/13 04:10:04;;;;;;;28.63;21.15;;;6.40;99.90;;;;;;5053839;28;20059;-62
2023/12/13 04:12:30;;;;;;;31.67;21.90;;;6.40;99.90;;;;;;5053204;28;20040;-63
2023/12/13 04:14:56;;;;;;;27.10;20.88;;;6.40;99.90;;;;;;5073620;28;20035;-62
2023/12/13 04:17:21;;;;;;;29.23;20.10;;;6.50;99.90;;;;;;5073525;28;20119;-63
2023/12/13 04:19:47;;;;;;;28.13;20.90;;;6.50;99.90;;;;;;5073784;28;20099;-63
2023/12/13 04:22:12;;;;;;;28.92;20.42;;;6.40;99.90;;;;;;5072387;28;20028;-63
2023/12/13 04:24:38;;;;;;;27.10;19.80;;;6.40;99.90;;;;;;5073930;28;20058;-63
2023/12/13 04:27:04;;;;;;;30.08;20.90;;;6.40;99.90;;;;;;5073552;28;20025;-63
2023/12/13 04:29:31;;;;;;;29.05;20.67;;;6.50;99.90;;;;;;5057627;28;20484;-63
2023/12/13 04:31:57;;;;;;;26.98;20.65;;;6.40;99.90;;;;;;5053877;28;20040;-63
2023/12/13 04:34:23;;;;;;;27.52;20.05;;;6.40;99.90;;;;;;5053878;28;20047;-63
2023/12/13 04:36:49;;;;;;;31.98;20.35;;;6.40;99.90;;;;;;5053901;28;20107;-63
2023/12/13 04:39:15;;;;;;;28.73;20.92;;;6.40;99.90;;;;;;5053179;28;20065;-62
2023/12/13 04:41:41;;;;;;;29.00;18.75;;;6.50;99.90;;;;;;5053589;28;20032;-63
2023/12/13 04:44:08;;;;;;;27.80;19.40;;;6.50;99.90;;;;;;5053136;28;20040;-63
2023/12/13 04:46:33;;;;;;;28.60;19.42;;;6.50;99.90;;;;;;5053569;28;20025;-62
2023/12/13 04:48:59;;;;;;;27.45;19.13;;;6.50;99.90;;;;;;5053248;28;20020;-62
2023/12/13 04:51:25;;;;;;;28.55;18.63;;;6.50;99.90;;;;;;5053768;28;20389;-62
2023/12/13 04:53:51;;;;;;;28.95;19.80;;;6.40;99.90;;;;;;5053499;28;20516;-63
2023/12/13 04:56:16;;;;;;;25.17;18.98;;;6.40;99.90;;;;;;5053106;28;20033;-62
2023/12/13 04:58:42;;;;;;;25.60;18.45;;;6.50;99.90;;;;;;5052657;28;20497;-63
2023/12/13 05:01:07;;;;;;;26.42;17.77;;;6.40;99.90;;;;;;5052896;28;20033;-63
2023/12/13 05:03:33;;;;;;;31.00;19.63;;;6.50;99.90;;;;;;5053434;28;20512;-63
2023/12/13 05:05:58;;;;;;;25.17;18.70;;;6.50;99.90;;;;;;5052907;28;20025;-63
2023/12/13 05:08:24;;;;;;;24.92;19.15;;;6.40;99.90;;;;;;5052763;28;20079;-63
2023/12/13 05:10:50;;;;;;;29.92;19.85;;;6.50;99.90;;;;;;5053316;28;20456;-64
2023/12/13 05:13:15;;;;;;;26.90;18.77;;;6.40;99.90;;;;;;5052443;28;20342;-62
2023/12/13 05:15:41;;;;;;;27.23;19.13;;;6.40;99.90;;;;;;5052994;28;20029;-63
2023/12/13 05:18:06;;;;;;;26.48;18.20;;;6.40;99.90;;;;;;5052617;28;20100;-63
2023/12/13 05:20:32;;;;;;;26.63;18.73;;;6.50;99.90;;;;;;5052581;28;20021;-62
2023/12/13 05:22:58;;;;;;;24.55;18.42;;;6.50;99.90;;;;;;5052733;28;20025;-62
2023/12/13 05:25:23;;;;;;;25.85;18.52;;;6.50;99.90;;;;;;5052495;28;20029;-63
2023/12/13 05:27:49;;;;;;;25.00;18.73;;;6.50;99.90;;;;;;5052913;28;20366;-63
2023/12/13 05:30:15;;;;;;;24.15;18.77;;;6.50;99.90;;;;;;5052183;28;20116;-63
2023/12/13 05:32:40;;;;;;;32.05;22.40;;;6.50;99.90;;;;;;5052855;28;20128;-63
2023/12/13 05:35:07;;;;;;;34.13;23.38;;;6.50;99.90;;;;;;5052460;28;20056;-64
2023/12/13 05:37:33;;;;;;;31.00;22.30;;;6.50;99.90;;;;;;5052977;28;20033;-64
2023/12/13 05:39:58;;;;;;;28.33;21.73;;;6.50;99.90;;;;;;5052785;28;20331;-63
2023/12/13 05:42:24;;;;;;;28.83;21.67;;;6.50;99.90;;;;;;5052249;28;20037;-64
2023/12/13 05:44:49;;;;;;;32.10;22.75;;;6.50;99.90;;;;;;5052877;28;20033;-63
2023/12/13 05:47:15;;;;;;;30.40;21.75;;;6.50;99.90;;;;;;5052145;28;20094;-63
2023/12/13 05:49:41;;;;;;;28.25;20.73;;;6.50;99.90;;;;;;5052481;28;20100;-63
2023/12/13 05:52:06;;;;;;;31.13;23.90;;;6.40;99.90;;;;;;5051658;28;20063;-64
2023/12/13 05:54:33;;;;;;;30.60;20.50;;;6.40;99.90;;;;;;5052253;28;20025;-63
2023/12/13 05:56:59;;;;;;;31.55;21.30;;;6.40;99.90;;;;;;5052315;28;20025;-64
2023/12/13 05:59:24;;;;;;;32.22;20.63;;;6.40;99.90;;;;;;5051861;28;20494;-62
2023/12/13 06:01:50;;;;;;;29.55;21.48;;;6.40;99.90;;;;;;5052311;28;20120;-62
2023/12/13 06:04:17;;;;;;;31.05;21.23;;;6.30;99.90;;;;;;5051969;28;20401;-64
2023/12/13 06:06:44;;;;;;;28.35;21.17;;;6.30;99.90;;;;;;5051148;28;20029;-63
2023/12/13 06:09:10;;;;;;;33.15;21.40;;;6.30;99.90;;;;;;5051911;28;20037;-64
2023/12/13 06:11:36;;;;;;;29.15;20.92;;;6.30;99.90;;;;;;5052260;28;20032;-64
2023/12/13 06:14:02;;;;;;;33.72;21.48;;;6.30;99.90;;;;;;5060746;28;20453;-64
2023/12/13 06:16:28;;;;;;;30.10;20.90;;;6.30;99.90;;;;;;5071983;28;20028;-64
2023/12/13 06:18:53;;;;;;;29.50;20.38;;;6.30;99.90;;;;;;5072547;28;20115;-67
2023/12/13 06:21:19;;;;;;;28.63;20.23;;;6.30;99.90;;;;;;5071697;28;20036;-63
2023/12/13 06:23:45;;;;;;;27.40;20.63;;;6.30;99.90;;;;;;5072070;28;20099;-63
2023/12/13 06:26:10;;;;;;;29.55;19.25;;;6.30;99.90;;;;;;5072118;28;20071;-63
2023/12/13 06:28:36;;;;;;;28.30;21.48;;;6.30;99.90;;;;;;5071942;28;20422;-63
2023/12/13 06:31:01;;;;;;;27.05;20.00;;;6.30;99.90;;;;;;5072140;28;20508;-63
2023/12/13 06:33:27;;;;;;;28.63;20.92;;;6.30;99.90;;;;;;5068359;28;20400;-63
2023/12/13 06:35:53;;;;;;;26.25;20.98;;;6.30;99.90;;;;;;5051997;28;20100;-63
2023/12/13 06:38:19;;;;;;;28.30;20.55;;;6.20;99.90;;;;;;5051468;28;20017;-62
2023/12/13 06:40:44;;;;;;;27.63;20.55;;;6.20;99.90;;;;;;5051636;28;20032;-63
2023/12/13 06:43:10;;;;;;;27.63;19.27;;;6.20;99.90;;;;;;5050709;28;20422;-63
2023/12/13 06:45:36;;;;;;;27.83;19.52;;;6.20;99.90;;;;;;5052889;28;20152;-64
2023/12/13 06:48:02;;;;;;;27.15;19.35;;;6.20;99.90;;;;;;5055403;28;20033;-63
2023/12/13 06:50:28;;;;;;;26.75;20.00;;;6.20;99.90;;;;;;5055318;28;20478;-64
2023/12/13 06:52:54;;;;;;;26.98;19.42;;;6.20;99.90;;;;;;5055560;28;20036;-63
2023/12/13 06:55:21;;;;;;;26.05;18.60;;;6.20;99.90;;;;;;5055143;28;20025;-63
2023/12/13 06:57:48;;;;;;;28.42;19.25;;;6.20;99.90;;;;;;5055451;28;20482;-63
2023/12/13 07:00:14;;;;;;;29.83;18.70;;;6.20;99.90;;;;;;5055184;28;20044;-63
2023/12/13 07:02:40;;;;;;;26.27;18.48;;;6.20;99.90;;;;;;5055411;28;20463;-62
2023/12/13 07:05:10;;;;;;;25.20;19.10;;;6.30;99.90;;;;;;5055086;28;20123;-63
2023/12/13 07:07:36;;;;;;;25.70;19.88;;;6.20;99.90;;;;;;5055327;28;20024;-63
2023/12/13 07:10:01;;;;;;;27.80;19.52;;;6.30;99.90;;;;;;5055366;28;20025;-63
2023/12/13 07:12:28;;;;;;;27.70;19.67;;;6.30;99.90;;;;;;5054824;28;20033;-63
2023/12/13 07:14:57;;;;;;;24.25;17.65;;;6.30;99.90;;;;;;5055233;28;20057;-62
2023/12/13 07:17:24;;;;;;;28.75;19.63;;;6.30;99.90;;;;;;5054896;28;20027;-63
2023/12/13 07:19:50;;;;;;;25.33;18.15;;;6.30;99.90;;;;;;5055277;28;20094;-62
2023/12/13 07:22:16;;;;;;;22.67;17.13;;;6.40;99.90;;;;;;5054730;28;20457;-63
2023/12/13 07:24:42;;;;;;;24.05;18.58;;;6.30;99.90;;;;;;5054545;28;20438;-63
2023/12/13 07:27:08;;;;;;;25.25;18.58;;;6.30;99.90;;;;;;5055148;28;20033;-62
2023/12/13 07:29:34;;;;;;;27.40;18.40;;;6.40;99.90;;;;;;5054548;28;20025;-62
2023/12/13 07:31:59;;;;;;;24.02;18.67;;;6.40;99.90;;;;;;5054833;28;20043;-62
2023/12/13 07:34:25;;;;;;;27.15;19.17;;;6.40;99.90;;;;;;5054368;28;20056;-62
2023/12/13 07:36:53;;;;;;;26.48;18.42;;;6.40;99.90;;;;;;5054597;28;20119;-63
2023/12/13 07:39:19;;;;;;;27.65;18.67;;;6.40;99.90;;;;;;5054320;28;20025;-64
2023/12/13 07:41:44;;;;;;;25.27;19.50;;;6.40;99.90;;;;;;5054851;28;20105;-63
2023/12/13 07:44:10;;;;;;;26.65;17.85;;;6.40;99.90;;;;;;5054453;28;20481;-63
2023/12/13 07:46:37;;;;;;;26.75;17.92;;;6.40;99.90;;;;;;5054317;28;20029;-64
2023/12/13 07:49:05;;;;;;;23.42;17.52;;;6.40;99.90;;;;;;5054645;28;20029;-63
2023/12/13 07:51:31;;;;;;;24.67;17.08;;;6.40;99.90;;;;;;5054037;28;20035;-63
2023/12/13 07:54:01;;;;;;;24.30;17.45;;;6.40;99.90;;;;;;5054308;28;20029;-63
2023/12/13 07:56:28;;;;;;;23.73;17.10;;;6.40;99.90;;;;;;5053640;28;20029;-62
2023/12/13 07:58:54;;;;;;;25.33;16.92;;;6.50;99.90;;;;;;5053714;28;20083;-62
2023/12/13 08:01:20;;;;;;;27.35;17.67;;;6.50;99.90;;;;;;5054110;28;20429;-63
2023/12/13 08:03:45;;;;;;;24.40;17.35;;;6.50;99.90;;;;;;5053994;28;20036;-62
2023/12/13 08:06:18;;;;;;;23.48;17.35;;;6.50;99.90;;;;;;5053958;28;20029;-63
2023/12/13 08:08:44;;;;;;;29.70;19.23;;;6.50;99.90;;;;;;5054227;28;20025;-62
2023/12/13 08:11:11;;;;;;;27.02;18.45;;;6.60;99.90;;;;;;5054074;28;20039;-62
2023/12/13 08:13:36;;;;;;;26.80;18.25;;;6.60;99.90;;;;;;5069040;28;20033;-62
2023/12/13 08:16:02;;;;;;;27.65;17.83;;;6.50;99.90;;;;;;5074034;28;20538;-63
2023/12/13 08:18:27;;;;;;;25.35;18.40;;;6.60;99.90;;;;;;5073615;28;20032;-63
2023/12/13 08:20:53;;;;;;;24.73;17.85;;;6.60;99.90;;;;;;5073945;28;20487;-63
2023/12/13 08:23:18;;;;;;;24.77;17.45;;;6.60;99.90;;;;;;5073885;28;20074;-64
2023/12/13 08:25:44;;;;;;;23.27;17.02;;;6.60;99.90;;;;;;5073685;28;20020;-63
2023/12/13 08:28:10;;;;;;;24.90;18.27;;;6.60;99.90;;;;;;5073989;28;20052;-62
2023/12/13 08:30:35;;;;;;;26.88;18.30;;;6.60;99.90;;;;;;5073526;28;20024;-63
2023/12/13 08:33:01;;;;;;;26.67;18.10;;;6.60;99.90;;;;;;5073691;28;20037;-63
2023/12/13 08:35:27;;;;;;;25.60;18.35;;;6.60;99.90;;;;;;5073666;28;20106;-64
2023/12/13 08:37:53;;;;;;;28.67;18.45;;;6.70;99.90;;;;;;5073932;28;20032;-63
2023/12/13 08:40:19;;;;;;;29.88;18.67;;;6.60;99.90;;;;;;5073569;28;20078;-63
2023/12/13 08:42:45;;;;;;;25.50;18.65;;;6.60;99.90;;;;;;5073809;28;20515;-62
2023/12/13 08:45:11;;;;;;;27.33;20.00;;;6.70;99.90;;;;;;5057880;28;20446;-64
2023/12/13 08:47:37;;;;;;;27.60;17.90;;;6.70;99.90;;;;;;5053053;28;20021;-63
2023/12/13 08:50:03;;;;;;;25.65;18.13;;;6.70;99.90;;;;;;5053827;28;20449;-62
2023/12/13 08:52:29;;;;;;;23.02;17.25;;;6.80;99.90;;;;;;5053166;28;20485;-63
2023/12/13 08:54:55;;;;;;;25.45;16.88;;;6.80;99.90;;;;;;5053384;28;20021;-63
2023/12/13 08:57:21;;;;;;;27.52;16.85;;;6.80;99.90;;;;;;5052991;28;20025;-62
2023/12/13 08:59:47;;;;;;;25.83;17.80;;;6.80;99.90;;;;;;5052956;28;20086;-63
2023/12/13 09:02:12;;;;;;;23.90;17.27;;;6.90;99.90;;;;;;5053167;28;20061;-62
2023/12/13 09:04:38;;;;;;;21.27;15.95;;;6.90;99.90;;;;;;5052729;28;20442;-62
2023/12/13 09:07:04;;;;;;;24.85;17.13;;;7.00;99.90;;;;;;5053108;28;20021;-63
2023/12/13 09:09:31;;;;;;;23.35;15.23;;;7.00;99.90;;;;;;5052343;28;20485;-62
2023/12/13 09:12:00;;;;;;;24.88;16.08;;;7.00;99.90;;;;;;5053098;28;20397;-63
2023/12/13 09:14:27;;;;;;;23.63;16.98;;;7.10;99.90;;;;;;5052284;28;20074;-62
2023/12/13 09:16:53;;;;;;;23.52;16.02;;;7.20;99.90;;;;;;5052943;28;20037;-63
2023/12/13 09:19:19;;;;;;;22.63;16.25;;;7.20;99.90;;;;;;5052735;28;20021;-63
2023/12/13 09:21:44;;;;;;;22.25;14.73;;;7.20;99.90;;;;;;5052816;28;20373;-63
2023/12/13 09:24:10;;;;;;;21.13;14.63;;;7.30;99.90;;;;;;5052578;28;20033;-63
2023/12/13 09:26:37;;;;;;;21.27;15.52;;;7.30;99.90;;;;;;5052556;28;20027;-64
2023/12/13 09:29:04;;;;;;;20.85;14.73;;;7.40;99.90;;;;;;5052894;28;20052;-64
2023/12/13 09:31:30;;;;;;;22.73;14.27;;;7.40;99.90;;;;;;5052328;28;20389;-64
2023/12/13 09:33:56;;;;;;;21.17;15.80;;;7.40;99.90;;;;;;5052750;28;20021;-63
2023/12/13 09:36:22;;;;;;;26.60;16.00;;;7.50;99.90;;;;;;5052317;28;20040;-66
2023/12/13 09:38:47;;;;;;;22.15;14.50;;;7.50;99.90;;;;;;5052769;28;20029;-63
2023/12/13 09:41:20;;;;;;;21.58;14.07;;;7.60;99.90;;;;;;5052499;28;20083;-62
2023/12/13 09:43:46;;;;;;;20.75;14.60;;;7.60;99.90;;;;;;5052187;28;20028;-63
2023/12/13 09:46:13;;;;;;;18.90;13.65;;;7.60;99.90;;;;;;5052706;28;20081;-63
2023/12/13 09:48:40;;;;;;;18.77;13.85;;;7.70;99.90;;;;;;5051989;28;20048;-64
2023/12/13 09:51:09;;;;;;;17.77;13.07;;;7.70;99.90;;;;;;5052248;28;20167;-63
2023/12/13 09:53:38;;;;;;;17.48;13.00;;;7.80;99.90;;;;;;5051875;28;20033;-63
2023/12/13 09:56:04;;;;;;;19.17;12.88;;;7.80;99.90;;;;;;5052276;28;20382;-63
2023/12/13 09:58:30;;;;;;;19.30;13.32;;;7.80;99.90;;;;;;5051419;28;20053;-63
2023/12/13 10:00:56;;;;;;;36.20;15.85;;;7.90;99.90;;;;;;5052102;28;20029;-63
2023/12/13 10:03:22;;;;;;;38.78;16.25;;;7.90;99.90;;;;;;5051925;28;20029;-63
2023/12/13 10:05:48;;;;;;;30.65;13.27;;;8.00;99.90;;;;;;5051974;28;20115;-63
2023/12/13 10:08:14;;;;;;;26.80;12.15;;;8.00;99.90;;;;;;5052005;28;20086;-63
2023/12/13 10:10:42;;;;;;;24.25;13.48;;;8.10;99.90;;;;;;5051923;28;20032;-63
2023/12/13 10:13:10;;;;;;;22.60;13.02;;;8.10;99.90;;;;;;5053014;28;20100;-64
2023/12/13 10:15:36;;;;;;;18.00;12.50;;;8.20;99.90;;;;;;5070953;28;20032;-63
2023/12/13 10:18:02;;;;;;;17.48;10.52;;;8.20;99.90;;;;;;5071901;28;20454;-63
2023/12/13 10:20:30;;;;;;;19.67;11.50;;;8.30;99.90;;;;;;5070820;28;20399;-63
2023/12/13 10:22:56;;;;;;;18.83;12.65;;;8.30;99.90;;;;;;5071843;28;20036;-63
2023/12/13 10:25:23;;;;;;;20.02;11.38;;;8.40;99.90;;;;;;5071632;28;20451;-63
2023/12/13 10:27:53;;;;;;;24.33;12.98;;;8.40;99.90;;;;;;5071465;28;20104;-63
2023/12/13 10:30:19;;;;;;;26.00;14.30;;;8.40;99.90;;;;;;5072000;28;20457;-63
2023/12/13 10:32:45;;;;;;;26.30;14.35;;;8.50;99.90;;;;;;5071672;28;20419;-62
2023/12/13 10:35:11;;;;;;;30.38;16.77;;;8.40;99.90;;;;;;5071896;28;20033;-63
2023/12/13 10:37:36;;;;;;;32.70;16.67;;;8.50;99.90;;;;;;5052855;28;20434;-63
2023/12/13 10:40:06;;;;;;;25.30;16.73;;;8.50;99.90;;;;;;5051263;28;20032;-63
2023/12/13 10:42:34;;;;;;;24.05;17.45;;;8.50;99.90;;;;;;5051004;28;20037;-63
2023/12/13 10:45:02;;;;;;;26.63;17.85;;;8.50;99.90;;;;;;5051716;28;20040;-63
2023/12/13 10:47:29;;;;;;;26.60;17.77;;;8.50;99.90;;;;;;5051396;28;20033;-63
2023/12/13 10:49:55;;;;;;;27.35;17.75;;;8.50;99.90;;;;;;5051810;28;20108;-62
2023/12/13 10:52:23;;;;;;;25.92;18.50;;;8.50;99.90;;;;;;5051689;28;20051;-63
2023/12/13 10:54:51;;;;;;;26.48;16.35;;;8.50;99.90;;;;;;5051257;28;20049;-63
2023/12/13 10:57:17;;;;;;;25.05;16.63;;;8.40;99.90;;;;;;5051517;28;20027;-63
2023/12/13 10:59:44;;;;;;;27.08;17.63;;;8.40;99.90;;;;;;5050654;28;20139;-62
2023/12/13 11:02:15;;;;;;;24.67;16.88;;;8.40;99.90;;;;;;5051327;28;20029;-63
2023/12/13 11:04:45;;;;;;;34.28;19.02;;;8.50;99.90;;;;;;5051095;28;20158;-62
2023/12/13 11:07:11;;;;;;;28.73;19.20;;;8.50;99.90;;;;;;5051135;28;20066;-62
2023/12/13 11:09:52;;;;;;;30.77;19.25;;;8.50;99.90;;;;;;5050830;28;20047;-63
2023/12/13 11:12:18;;;;;;;29.40;19.27;;;8.50;99.90;;;;;;5051457;28;20036;-62
2023/12/13 11:14:51;;;;;;;29.30;20.25;;;8.40;99.90;;;;;;5051008;28;20037;-63
2023/12/13 11:17:19;;;;;;;28.30;19.50;;;8.40;99.90;;;;;;5051370;28;20461;-63
2023/12/13 11:19:46;;;;;;;30.65;20.65;;;8.40;99.90;;;;;;5050889;28;20421;-63
2023/12/13 11:22:14;;;;;;;29.38;20.40;;;8.40;99.90;;;;;;5051167;28;20033;-62
2023/12/13 11:24:41;;;;;;;34.42;21.20;;;8.40;99.90;;;;;;5050930;28;20025;-63
2023/12/13 11:27:12;;;;;;;30.67;20.55;;;8.40;99.90;;;;;;5051206;28;20029;-62
2023/12/13 11:29:42;;;;;;;30.27;21.05;;;8.40;99.90;;;;;;5050736;28;20560;-64
2023/12/13 11:32:07;;;;;;;28.50;19.88;;;8.30;99.90;;;;;;5053342;28;20155;-62
2023/12/13 11:34:42;;;;;;;29.67;19.77;;;8.40;99.90;;;;;;5054434;28;20116;-64
2023/12/13 11:37:13;;;;;;;32.78;21.27;;;8.30;99.90;;;;;;5055047;28;20359;-63
2023/12/13 11:39:40;;;;;;;33.90;21.63;;;8.30;99.90;;;;;;5054435;28;20032;-64
2023/12/13 11:42:07;;;;;;;29.85;20.95;;;8.30;99.90;;;;;;5054468;28;20501;-63
2023/12/13 11:44:35;;;;;;;28.20;20.50;;;8.30;99.90;;;;;;5054453;28;20021;-63
2023/12/13 11:47:12;;;;;;;24.30;18.67;;;8.30;99.90;;;;;;5054603;28;20434;-63
2023/12/13 11:49:38;;;;;;;28.00;19.38;;;8.30;99.90;;;;;;5054445;28;20090;-62
2023/12/13 11:52:04;;;;;;;25.70;18.15;;;8.30;99.90;;;;;;5054617;28;20061;-63
2023/12/13 11:54:30;;;;;;;26.63;19.60;;;8.30;99.90;;;;;;5054264;28;20397;-62
2023/12/13 11:56:55;;;;;;;30.48;19.70;;;8.30;99.90;;;;;;5054522;28;20040;-63
2023/12/13 11:59:21;;;;;;;28.02;18.83;;;8.30;99.90;;;;;;5054381;28;20053;-62
2023/12/13 12:01:47;;;;;;;28.98;19.45;;;8.30;99.90;;;;;;5053967;28;20464;-62
2023/12/13 12:04:16;;;;;;;26.70;18.30;;;8.30;99.90;;;;;;5053913;28;20103;-63
2023/12/13 12:06:48;;;;;;;30.77;20.52;;;8.30;99.90;;;;;;5053696;28;20074;-63
2023/12/13 12:09:15;;;;;;;28.35;20.00;;;8.30;99.90;;;;;;5054140;28;20444;-62
2023/12/13 12:11:41;;;;;;;30.92;21.33;;;8.30;99.90;;;;;;5054115;28;20040;-63
2023/12/13 12:14:08;;;;;;;31.73;21.30;;;8.20;99.90;;;;;;5054228;28;20024;-63
2023/12/13 12:16:35;;;;;;;34.83;22.30;;;8.20;99.90;;;;;;5053996;28;20025;-64
2023/12/13 12:19:02;;;;;;;34.25;21.52;;;8.20;99.90;;;;;;5054177;28;20025;-63
2023/12/13 12:21:32;;;;;;;32.63;21.65;;;8.20;99.90;;;;;;5053725;28;20033;-63
2023/12/13 12:23:58;;;;;;;32.72;21.92;;;8.20;99.90;;;;;;5066340;28;20032;-63
2023/12/13 12:26:24;;;;;;;35.20;22.63;;;8.20;99.90;;;;;;5074057;28;20068;-64
2023/12/13 12:28:50;;;;;;;29.83;20.55;;;8.20;99.90;;;;;;5073546;28;20457;-62
2023/12/13 12:31:16;;;;;;;34.88;22.85;;;8.20;99.90;;;;;;5073836;28;20029;-62
2023/12/13 12:33:41;;;;;;;28.92;20.73;;;8.20;99.90;;;;;;5073307;28;20477;-62